sensor_id;sensor_type;location;lat;lon;timestamp;P1;durP1;ratioP1;P2;durP2;ratioP2
42030;SDS011;27709;52.036;5.906;2024-01-27T00:01:47;15.02;;;3.97;;
42030;SDS011;27709;52.036;5.906;2024-01-27T00:04:13;20.10;;;4.40;;
42030;SDS011;27709;52.036;5.906;2024-01-27T00:06:39;20.63;;;5.03;;
42030;SDS011;27709;52.036;5.906;2024-01-27T00:09:04;20.50;;;4.15;;
42030;SDS011;27709;52.036;5.906;2024-01-27T00:11:31;17.10;;;3.92;;
42030;SDS011;27709;52.036;5.906;2024-01-27T00:13:57;18.00;;;4.15;;
42030;SDS011;27709;52.036;5.906;2024-01-27T00:16:24;14.13;;;4.20;;
42030;SDS011;27709;52.036;5.906;2024-01-27T00:18:49;13.38;;;3.88;;
42030;SDS011;27709;52.036;5.906;2024-01-27T00:21:15;16.45;;;4.35;;
42030;SDS011;27709;52.036;5.906;2024-01-27T00:23:41;14.20;;;4.13;;
42030;SDS011;27709;52.036;5.906;2024-01-27T00:26:06;15.23;;;4.05;;
42030;SDS011;27709;52.036;5.906;2024-01-27T00:28:32;20.73;;;4.43;;
42030;SDS011;27709;52.036;5.906;2024-01-27T00:30:58;18.52;;;4.68;;
42030;SDS011;27709;52.036;5.906;2024-01-27T00:33:23;14.02;;;4.05;;
42030;SDS011;27709;52.036;5.906;2024-01-27T00:35:49;16.70;;;4.10;;
42030;SDS011;27709;52.036;5.906;2024-01-27T00:38:16;17.38;;;4.10;;
42030;SDS011;27709;52.036;5.906;2024-01-27T00:40:41;19.10;;;4.78;;
42030;SDS011;27709;52.036;5.906;2024-01-27T00:43:07;20.13;;;4.45;;
42030;SDS011;27709;52.036;5.906;2024-01-27T00:45:33;16.75;;;4.43;;
42030;SDS011;27709;52.036;5.906;2024-01-27T00:48:00;16.45;;;4.30;;
42030;SDS011;27709;52.036;5.906;2024-01-27T00:50:26;16.08;;;4.10;;
42030;SDS011;27709;52.036;5.906;2024-01-27T00:52:54;12.93;;;3.90;;
42030;SDS011;27709;52.036;5.906;2024-01-27T00:55:20;15.05;;;4.40;;
42030;SDS011;27709;52.036;5.906;2024-01-27T00:57:45;17.85;;;4.00;;
42030;SDS011;27709;52.036;5.906;2024-01-27T01:00:11;11.82;;;4.15;;
42030;SDS011;27709;52.036;5.906;2024-01-27T01:02:37;17.85;;;4.90;;
42030;SDS011;27709;52.036;5.906;2024-01-27T01:05:03;19.15;;;4.38;;
42030;SDS011;27709;52.036;5.906;2024-01-27T01:07:29;17.02;;;4.50;;
42030;SDS011;27709;52.036;5.906;2024-01-27T01:09:55;15.95;;;4.28;;
42030;SDS011;27709;52.036;5.906;2024-01-27T01:12:21;18.10;;;4.75;;
42030;SDS011;27709;52.036;5.906;2024-01-27T01:14:47;12.60;;;3.97;;
42030;SDS011;27709;52.036;5.906;2024-01-27T01:17:13;17.98;;;4.53;;
42030;SDS011;27709;52.036;5.906;2024-01-27T01:19:38;16.15;;;4.45;;
42030;SDS011;27709;52.036;5.906;2024-01-27T01:22:05;17.73;;;4.68;;
42030;SDS011;27709;52.036;5.906;2024-01-27T01:24:32;21.45;;;4.53;;
42030;SDS011;27709;52.036;5.906;2024-01-27T01:26:58;19.65;;;4.45;;
42030;SDS011;27709;52.036;5.906;2024-01-27T01:29:24;20.80;;;4.40;;
42030;SDS011;27709;52.036;5.906;2024-01-27T01:31:50;15.63;;;4.63;;
42030;SDS011;27709;52.036;5.906;2024-01-27T01:34:15;18.17;;;4.97;;
42030;SDS011;27709;52.036;5.906;2024-01-27T01:36:44;16.10;;;4.22;;
42030;SDS011;27709;52.036;5.906;2024-01-27T01:39:10;18.05;;;5.07;;
42030;SDS011;27709;52.036;5.906;2024-01-27T01:41:38;14.75;;;4.82;;
42030;SDS011;27709;52.036;5.906;2024-01-27T01:44:04;16.83;;;4.40;;
42030;SDS011;27709;52.036;5.906;2024-01-27T01:46:29;13.35;;;3.88;;
42030;SDS011;27709;52.036;5.906;2024-01-27T01:48:55;14.52;;;4.18;;
42030;SDS011;27709;52.036;5.906;2024-01-27T01:51:21;13.55;;;4.75;;
42030;SDS011;27709;52.036;5.906;2024-01-27T01:53:48;13.75;;;4.00;;
42030;SDS011;27709;52.036;5.906;2024-01-27T01:56:14;15.40;;;4.35;;
42030;SDS011;27709;52.036;5.906;2024-01-27T01:58:43;17.77;;;4.03;;
42030;SDS011;27709;52.036;5.906;2024-01-27T02:01:09;14.30;;;4.47;;
42030;SDS011;27709;52.036;5.906;2024-01-27T02:03:35;14.40;;;4.35;;
42030;SDS011;27709;52.036;5.906;2024-01-27T02:06:00;17.90;;;4.10;;
42030;SDS011;27709;52.036;5.906;2024-01-27T02:08:26;12.77;;;3.90;;
42030;SDS011;27709;52.036;5.906;2024-01-27T02:10:51;20.13;;;5.05;;
42030;SDS011;27709;52.036;5.906;2024-01-27T02:13:17;15.32;;;4.78;;
42030;SDS011;27709;52.036;5.906;2024-01-27T02:15:44;16.67;;;4.45;;
42030;SDS011;27709;52.036;5.906;2024-01-27T02:18:10;13.50;;;4.35;;
42030;SDS011;27709;52.036;5.906;2024-01-27T02:20:36;19.42;;;5.03;;
42030;SDS011;27709;52.036;5.906;2024-01-27T02:23:02;16.27;;;4.55;;
42030;SDS011;27709;52.036;5.906;2024-01-27T02:25:30;12.15;;;4.07;;
42030;SDS011;27709;52.036;5.906;2024-01-27T02:27:56;17.70;;;4.10;;
42030;SDS011;27709;52.036;5.906;2024-01-27T02:30:21;18.60;;;4.30;;
42030;SDS011;27709;52.036;5.906;2024-01-27T02:32:47;16.25;;;4.25;;
42030;SDS011;27709;52.036;5.906;2024-01-27T02:35:13;18.90;;;4.80;;
42030;SDS011;27709;52.036;5.906;2024-01-27T02:37:39;11.77;;;4.35;;
42030;SDS011;27709;52.036;5.906;2024-01-27T02:40:08;15.35;;;4.05;;
42030;SDS011;27709;52.036;5.906;2024-01-27T02:42:37;14.13;;;4.38;;
42030;SDS011;27709;52.036;5.906;2024-01-27T02:45:06;21.17;;;4.90;;
42030;SDS011;27709;52.036;5.906;2024-01-27T02:47:31;14.50;;;4.10;;
42030;SDS011;27709;52.036;5.906;2024-01-27T02:49:57;18.17;;;4.60;;
42030;SDS011;27709;52.036;5.906;2024-01-27T02:52:22;13.63;;;3.90;;
42030;SDS011;27709;52.036;5.906;2024-01-27T02:54:48;14.27;;;4.60;;
42030;SDS011;27709;52.036;5.906;2024-01-27T02:57:13;15.38;;;5.07;;
42030;SDS011;27709;52.036;5.906;2024-01-27T02:59:44;17.75;;;4.85;;
42030;SDS011;27709;52.036;5.906;2024-01-27T03:02:13;15.50;;;4.13;;
42030;SDS011;27709;52.036;5.906;2024-01-27T03:04:39;19.77;;;4.53;;
42030;SDS011;27709;52.036;5.906;2024-01-27T03:07:04;17.77;;;4.85;;
42030;SDS011;27709;52.036;5.906;2024-01-27T03:09:30;18.95;;;4.82;;
42030;SDS011;27709;52.036;5.906;2024-01-27T03:11:57;15.85;;;4.78;;
42030;SDS011;27709;52.036;5.906;2024-01-27T03:14:22;13.13;;;4.40;;
42030;SDS011;27709;52.036;5.906;2024-01-27T03:16:48;15.32;;;4.20;;
42030;SDS011;27709;52.036;5.906;2024-01-27T03:19:14;17.35;;;4.82;;
42030;SDS011;27709;52.036;5.906;2024-01-27T03:21:40;13.55;;;4.93;;
42030;SDS011;27709;52.036;5.906;2024-01-27T03:24:05;17.13;;;4.32;;
42030;SDS011;27709;52.036;5.906;2024-01-27T03:26:31;17.48;;;5.03;;
42030;SDS011;27709;52.036;5.906;2024-01-27T03:28:57;19.38;;;5.32;;
42030;SDS011;27709;52.036;5.906;2024-01-27T03:31:22;17.70;;;4.55;;
42030;SDS011;27709;52.036;5.906;2024-01-27T03:33:48;17.98;;;4.80;;
42030;SDS011;27709;52.036;5.906;2024-01-27T03:36:14;15.95;;;4.85;;
42030;SDS011;27709;52.036;5.906;2024-01-27T03:38:40;16.15;;;4.88;;
42030;SDS011;27709;52.036;5.906;2024-01-27T03:41:06;16.33;;;4.35;;
42030;SDS011;27709;52.036;5.906;2024-01-27T03:43:33;16.70;;;4.72;;
42030;SDS011;27709;52.036;5.906;2024-01-27T03:45:59;20.52;;;5.47;;
42030;SDS011;27709;52.036;5.906;2024-01-27T03:48:24;15.65;;;4.40;;
42030;SDS011;27709;52.036;5.906;2024-01-27T03:50:50;15.52;;;4.30;;
42030;SDS011;27709;52.036;5.906;2024-01-27T03:53:15;18.65;;;5.60;;
42030;SDS011;27709;52.036;5.906;2024-01-27T03:55:41;13.13;;;4.47;;
42030;SDS011;27709;52.036;5.906;2024-01-27T03:58:07;14.43;;;4.32;;
42030;SDS011;27709;52.036;5.906;2024-01-27T04:00:32;13.13;;;4.75;;
42030;SDS011;27709;52.036;5.906;2024-01-27T04:03:01;15.10;;;5.03;;
42030;SDS011;27709;52.036;5.906;2024-01-27T04:05:28;16.33;;;4.68;;
42030;SDS011;27709;52.036;5.906;2024-01-27T04:07:54;12.60;;;4.60;;
42030;SDS011;27709;52.036;5.906;2024-01-27T04:10:20;16.40;;;4.80;;
42030;SDS011;27709;52.036;5.906;2024-01-27T04:12:46;16.85;;;4.60;;
42030;SDS011;27709;52.036;5.906;2024-01-27T04:15:11;15.15;;;5.00;;
42030;SDS011;27709;52.036;5.906;2024-01-27T04:17:38;14.40;;;4.68;;
42030;SDS011;27709;52.036;5.906;2024-01-27T04:20:05;14.48;;;5.22;;
42030;SDS011;27709;52.036;5.906;2024-01-27T04:22:31;14.27;;;4.53;;
42030;SDS011;27709;52.036;5.906;2024-01-27T04:24:58;15.02;;;5.45;;
42030;SDS011;27709;52.036;5.906;2024-01-27T04:27:23;16.42;;;5.25;;
42030;SDS011;27709;52.036;5.906;2024-01-27T04:29:49;15.02;;;5.43;;
42030;SDS011;27709;52.036;5.906;2024-01-27T04:32:14;17.45;;;5.47;;
42030;SDS011;27709;52.036;5.906;2024-01-27T04:34:40;17.45;;;5.22;;
42030;SDS011;27709;52.036;5.906;2024-01-27T04:37:06;14.65;;;5.20;;
42030;SDS011;27709;52.036;5.906;2024-01-27T04:39:31;16.20;;;4.75;;
42030;SDS011;27709;52.036;5.906;2024-01-27T04:41:58;13.77;;;4.80;;
42030;SDS011;27709;52.036;5.906;2024-01-27T04:44:24;15.25;;;4.68;;
42030;SDS011;27709;52.036;5.906;2024-01-27T04:46:49;15.50;;;4.75;;
42030;SDS011;27709;52.036;5.906;2024-01-27T04:49:15;14.60;;;4.57;;
42030;SDS011;27709;52.036;5.906;2024-01-27T04:51:40;14.40;;;4.93;;
42030;SDS011;27709;52.036;5.906;2024-01-27T04:54:06;14.23;;;4.80;;
42030;SDS011;27709;52.036;5.906;2024-01-27T04:56:32;11.85;;;4.60;;
42030;SDS011;27709;52.036;5.906;2024-01-27T04:58:58;15.93;;;5.07;;
42030;SDS011;27709;52.036;5.906;2024-01-27T05:01:24;12.63;;;5.05;;
42030;SDS011;27709;52.036;5.906;2024-01-27T05:03:49;14.80;;;5.53;;
42030;SDS011;27709;52.036;5.906;2024-01-27T05:06:15;15.82;;;5.30;;
42030;SDS011;27709;52.036;5.906;2024-01-27T05:08:41;15.93;;;5.97;;
42030;SDS011;27709;52.036;5.906;2024-01-27T05:11:06;16.48;;;6.15;;
42030;SDS011;27709;52.036;5.906;2024-01-27T05:13:32;12.70;;;6.10;;
42030;SDS011;27709;52.036;5.906;2024-01-27T05:15:58;17.30;;;6.75;;
42030;SDS011;27709;52.036;5.906;2024-01-27T05:18:23;19.48;;;7.57;;
42030;SDS011;27709;52.036;5.906;2024-01-27T05:20:49;17.05;;;6.70;;
42030;SDS011;27709;52.036;5.906;2024-01-27T05:23:15;18.08;;;8.00;;
42030;SDS011;27709;52.036;5.906;2024-01-27T05:25:40;17.70;;;7.05;;
42030;SDS011;27709;52.036;5.906;2024-01-27T05:28:06;19.02;;;7.95;;
42030;SDS011;27709;52.036;5.906;2024-01-27T05:30:32;20.95;;;8.30;;
42030;SDS011;27709;52.036;5.906;2024-01-27T05:32:58;19.25;;;7.75;;
42030;SDS011;27709;52.036;5.906;2024-01-27T05:35:23;18.98;;;8.40;;
42030;SDS011;27709;52.036;5.906;2024-01-27T05:37:49;24.25;;;9.73;;
42030;SDS011;27709;52.036;5.906;2024-01-27T05:40:16;19.35;;;8.20;;
42030;SDS011;27709;52.036;5.906;2024-01-27T05:42:42;18.80;;;7.85;;
42030;SDS011;27709;52.036;5.906;2024-01-27T05:45:10;22.27;;;8.88;;
42030;SDS011;27709;52.036;5.906;2024-01-27T05:47:35;22.20;;;8.80;;
42030;SDS011;27709;52.036;5.906;2024-01-27T05:50:01;20.83;;;8.60;;
42030;SDS011;27709;52.036;5.906;2024-01-27T05:52:27;20.95;;;9.30;;
42030;SDS011;27709;52.036;5.906;2024-01-27T05:54:53;18.75;;;7.80;;
42030;SDS011;27709;52.036;5.906;2024-01-27T05:57:19;16.42;;;7.50;;
42030;SDS011;27709;52.036;5.906;2024-01-27T05:59:45;19.35;;;7.60;;
42030;SDS011;27709;52.036;5.906;2024-01-27T06:02:10;19.20;;;8.73;;
42030;SDS011;27709;52.036;5.906;2024-01-27T06:04:36;21.33;;;7.85;;
42030;SDS011;27709;52.036;5.906;2024-01-27T06:07:02;18.48;;;8.02;;
42030;SDS011;27709;52.036;5.906;2024-01-27T06:09:27;17.17;;;8.18;;
42030;SDS011;27709;52.036;5.906;2024-01-27T06:11:53;19.30;;;8.43;;
42030;SDS011;27709;52.036;5.906;2024-01-27T06:14:18;17.30;;;7.75;;
42030;SDS011;27709;52.036;5.906;2024-01-27T06:16:44;14.85;;;7.95;;
42030;SDS011;27709;52.036;5.906;2024-01-27T06:19:10;21.40;;;7.55;;
42030;SDS011;27709;52.036;5.906;2024-01-27T06:21:35;23.63;;;8.18;;
42030;SDS011;27709;52.036;5.906;2024-01-27T06:24:01;22.52;;;8.63;;
42030;SDS011;27709;52.036;5.906;2024-01-27T06:26:27;21.23;;;8.23;;
42030;SDS011;27709;52.036;5.906;2024-01-27T06:28:52;18.70;;;9.57;;
42030;SDS011;27709;52.036;5.906;2024-01-27T06:31:18;22.50;;;9.05;;
42030;SDS011;27709;52.036;5.906;2024-01-27T06:33:44;19.15;;;9.00;;
42030;SDS011;27709;52.036;5.906;2024-01-27T06:36:09;22.67;;;9.30;;
42030;SDS011;27709;52.036;5.906;2024-01-27T06:38:36;24.50;;;9.43;;
42030;SDS011;27709;52.036;5.906;2024-01-27T06:41:03;27.17;;;10.18;;
42030;SDS011;27709;52.036;5.906;2024-01-27T06:43:28;22.27;;;9.43;;
42030;SDS011;27709;52.036;5.906;2024-01-27T06:45:54;20.42;;;9.48;;
42030;SDS011;27709;52.036;5.906;2024-01-27T06:48:22;22.58;;;9.63;;
42030;SDS011;27709;52.036;5.906;2024-01-27T06:50:50;21.30;;;9.20;;
42030;SDS011;27709;52.036;5.906;2024-01-27T06:53:17;21.55;;;9.40;;
42030;SDS011;27709;52.036;5.906;2024-01-27T06:55:43;24.17;;;10.80;;
42030;SDS011;27709;52.036;5.906;2024-01-27T06:58:09;25.38;;;9.73;;
42030;SDS011;27709;52.036;5.906;2024-01-27T07:00:35;26.27;;;10.20;;
42030;SDS011;27709;52.036;5.906;2024-01-27T07:03:00;23.92;;;10.65;;
42030;SDS011;27709;52.036;5.906;2024-01-27T07:05:26;21.63;;;10.27;;
42030;SDS011;27709;52.036;5.906;2024-01-27T07:07:51;22.95;;;10.40;;
42030;SDS011;27709;52.036;5.906;2024-01-27T07:10:17;21.70;;;10.45;;
42030;SDS011;27709;52.036;5.906;2024-01-27T07:12:42;21.10;;;10.73;;
42030;SDS011;27709;52.036;5.906;2024-01-27T07:15:08;22.25;;;10.52;;
42030;SDS011;27709;52.036;5.906;2024-01-27T07:17:34;21.88;;;11.30;;
42030;SDS011;27709;52.036;5.906;2024-01-27T07:19:59;23.20;;;10.52;;
42030;SDS011;27709;52.036;5.906;2024-01-27T07:22:25;24.40;;;10.32;;
42030;SDS011;27709;52.036;5.906;2024-01-27T07:24:51;23.77;;;11.27;;
42030;SDS011;27709;52.036;5.906;2024-01-27T07:27:17;25.75;;;11.25;;
42030;SDS011;27709;52.036;5.906;2024-01-27T07:29:43;24.05;;;10.95;;
42030;SDS011;27709;52.036;5.906;2024-01-27T07:32:09;28.08;;;11.95;;
42030;SDS011;27709;52.036;5.906;2024-01-27T07:34:39;24.73;;;11.43;;
42030;SDS011;27709;52.036;5.906;2024-01-27T07:37:11;22.58;;;11.10;;
42030;SDS011;27709;52.036;5.906;2024-01-27T07:39:40;25.60;;;10.73;;
42030;SDS011;27709;52.036;5.906;2024-01-27T07:42:05;23.52;;;11.63;;
42030;SDS011;27709;52.036;5.906;2024-01-27T07:44:31;25.30;;;11.40;;
42030;SDS011;27709;52.036;5.906;2024-01-27T07:46:57;23.88;;;12.07;;
42030;SDS011;27709;52.036;5.906;2024-01-27T07:49:22;24.83;;;11.50;;
42030;SDS011;27709;52.036;5.906;2024-01-27T07:51:48;22.90;;;11.27;;
42030;SDS011;27709;52.036;5.906;2024-01-27T07:54:13;23.33;;;12.32;;
42030;SDS011;27709;52.036;5.906;2024-01-27T07:56:39;23.90;;;11.63;;
42030;SDS011;27709;52.036;5.906;2024-01-27T07:59:06;26.00;;;12.50;;
42030;SDS011;27709;52.036;5.906;2024-01-27T08:01:38;23.65;;;11.73;;
42030;SDS011;27709;52.036;5.906;2024-01-27T08:04:04;27.95;;;12.55;;
42030;SDS011;27709;52.036;5.906;2024-01-27T08:06:30;24.70;;;12.23;;
42030;SDS011;27709;52.036;5.906;2024-01-27T08:08:55;24.48;;;13.30;;
42030;SDS011;27709;52.036;5.906;2024-01-27T08:11:21;22.40;;;12.45;;
42030;SDS011;27709;52.036;5.906;2024-01-27T08:13:47;24.70;;;13.18;;
42030;SDS011;27709;52.036;5.906;2024-01-27T08:16:13;23.77;;;12.95;;
42030;SDS011;27709;52.036;5.906;2024-01-27T08:18:39;27.52;;;13.40;;
42030;SDS011;27709;52.036;5.906;2024-01-27T08:21:07;30.33;;;13.02;;
42030;SDS011;27709;52.036;5.906;2024-01-27T08:23:33;25.05;;;13.82;;
42030;SDS011;27709;52.036;5.906;2024-01-27T08:25:58;27.85;;;12.77;;
42030;SDS011;27709;52.036;5.906;2024-01-27T08:28:24;26.13;;;12.95;;
42030;SDS011;27709;52.036;5.906;2024-01-27T08:30:49;25.02;;;11.73;;
42030;SDS011;27709;52.036;5.906;2024-01-27T08:33:15;26.05;;;12.32;;
42030;SDS011;27709;52.036;5.906;2024-01-27T08:35:41;24.58;;;12.80;;
42030;SDS011;27709;52.036;5.906;2024-01-27T08:38:06;25.00;;;13.38;;
42030;SDS011;27709;52.036;5.906;2024-01-27T08:40:34;20.48;;;12.00;;
42030;SDS011;27709;52.036;5.906;2024-01-27T08:43:00;28.77;;;12.93;;
42030;SDS011;27709;52.036;5.906;2024-01-27T08:45:26;26.23;;;12.52;;
42030;SDS011;27709;52.036;5.906;2024-01-27T08:47:52;23.00;;;11.50;;
42030;SDS011;27709;52.036;5.906;2024-01-27T08:50:18;21.40;;;11.60;;
42030;SDS011;27709;52.036;5.906;2024-01-27T08:52:45;25.85;;;11.68;;
42030;SDS011;27709;52.036;5.906;2024-01-27T08:55:14;22.50;;;11.77;;
42030;SDS011;27709;52.036;5.906;2024-01-27T08:57:43;19.63;;;10.77;;
42030;SDS011;27709;52.036;5.906;2024-01-27T09:00:10;22.88;;;10.85;;
42030;SDS011;27709;52.036;5.906;2024-01-27T09:02:38;19.95;;;10.30;;
42030;SDS011;27709;52.036;5.906;2024-01-27T09:05:03;23.00;;;10.52;;
42030;SDS011;27709;52.036;5.906;2024-01-27T09:07:30;23.58;;;10.48;;
42030;SDS011;27709;52.036;5.906;2024-01-27T09:09:56;20.23;;;10.77;;
42030;SDS011;27709;52.036;5.906;2024-01-27T09:12:21;18.15;;;9.82;;
42030;SDS011;27709;52.036;5.906;2024-01-27T09:14:47;18.75;;;10.07;;
42030;SDS011;27709;52.036;5.906;2024-01-27T09:17:13;18.25;;;9.63;;
42030;SDS011;27709;52.036;5.906;2024-01-27T09:19:38;21.90;;;9.60;;
42030;SDS011;27709;52.036;5.906;2024-01-27T09:22:04;20.08;;;9.63;;
42030;SDS011;27709;52.036;5.906;2024-01-27T09:24:29;19.63;;;9.75;;
42030;SDS011;27709;52.036;5.906;2024-01-27T09:26:55;20.80;;;9.68;;
42030;SDS011;27709;52.036;5.906;2024-01-27T09:29:20;21.33;;;9.70;;
42030;SDS011;27709;52.036;5.906;2024-01-27T09:31:46;21.40;;;9.70;;
42030;SDS011;27709;52.036;5.906;2024-01-27T09:34:12;18.23;;;8.82;;
42030;SDS011;27709;52.036;5.906;2024-01-27T09:36:37;17.30;;;8.80;;
42030;SDS011;27709;52.036;5.906;2024-01-27T09:39:03;20.42;;;8.90;;
42030;SDS011;27709;52.036;5.906;2024-01-27T09:41:31;17.25;;;9.30;;
42030;SDS011;27709;52.036;5.906;2024-01-27T09:43:59;19.60;;;9.00;;
42030;SDS011;27709;52.036;5.906;2024-01-27T09:46:27;19.88;;;9.82;;
42030;SDS011;27709;52.036;5.906;2024-01-27T09:48:53;19.15;;;8.85;;
42030;SDS011;27709;52.036;5.906;2024-01-27T09:51:19;20.55;;;10.02;;
42030;SDS011;27709;52.036;5.906;2024-01-27T09:53:45;19.13;;;9.32;;
42030;SDS011;27709;52.036;5.906;2024-01-27T09:56:10;23.25;;;10.73;;
42030;SDS011;27709;52.036;5.906;2024-01-27T09:58:43;20.48;;;9.82;;
42030;SDS011;27709;52.036;5.906;2024-01-27T10:01:15;18.05;;;9.68;;
42030;SDS011;27709;52.036;5.906;2024-01-27T10:03:43;19.23;;;10.00;;
42030;SDS011;27709;52.036;5.906;2024-01-27T10:06:09;23.85;;;9.93;;
42030;SDS011;27709;52.036;5.906;2024-01-27T10:08:35;19.50;;;9.68;;
42030;SDS011;27709;52.036;5.906;2024-01-27T10:11:08;17.73;;;9.13;;
42030;SDS011;27709;52.036;5.906;2024-01-27T10:13:35;17.73;;;8.68;;
42030;SDS011;27709;52.036;5.906;2024-01-27T10:18:30;20.20;;;9.15;;
42030;SDS011;27709;52.036;5.906;2024-01-27T10:20:56;19.63;;;8.38;;
42030;SDS011;27709;52.036;5.906;2024-01-27T10:23:23;18.10;;;8.68;;
42030;SDS011;27709;52.036;5.906;2024-01-27T10:25:49;16.48;;;8.38;;
42030;SDS011;27709;52.036;5.906;2024-01-27T10:28:15;16.02;;;8.23;;
42030;SDS011;27709;52.036;5.906;2024-01-27T10:30:41;20.73;;;8.20;;
42030;SDS011;27709;52.036;5.906;2024-01-27T10:33:10;18.15;;;7.53;;
42030;SDS011;27709;52.036;5.906;2024-01-27T10:35:40;19.10;;;7.97;;
42030;SDS011;27709;52.036;5.906;2024-01-27T10:38:07;18.65;;;7.28;;
42030;SDS011;27709;52.036;5.906;2024-01-27T10:40:33;16.98;;;7.53;;
42030;SDS011;27709;52.036;5.906;2024-01-27T10:43:01;15.82;;;7.13;;
42030;SDS011;27709;52.036;5.906;2024-01-27T10:45:34;16.23;;;7.72;;
42030;SDS011;27709;52.036;5.906;2024-01-27T10:48:04;16.88;;;7.53;;
42030;SDS011;27709;52.036;5.906;2024-01-27T10:50:42;20.73;;;8.63;;
42030;SDS011;27709;52.036;5.906;2024-01-27T10:53:09;15.23;;;6.57;;
42030;SDS011;27709;52.036;5.906;2024-01-27T10:55:43;16.77;;;6.75;;
42030;SDS011;27709;52.036;5.906;2024-01-27T10:58:15;17.02;;;7.25;;
42030;SDS011;27709;52.036;5.906;2024-01-27T11:00:41;21.00;;;6.78;;
42030;SDS011;27709;52.036;5.906;2024-01-27T11:03:10;16.13;;;6.57;;
42030;SDS011;27709;52.036;5.906;2024-01-27T11:05:36;13.40;;;6.50;;
42030;SDS011;27709;52.036;5.906;2024-01-27T11:08:04;15.82;;;6.50;;
42030;SDS011;27709;52.036;5.906;2024-01-27T11:10:33;18.40;;;7.10;;
42030;SDS011;27709;52.036;5.906;2024-01-27T11:13:03;13.88;;;6.45;;
42030;SDS011;27709;52.036;5.906;2024-01-27T11:15:30;13.93;;;6.32;;
42030;SDS011;27709;52.036;5.906;2024-01-27T11:17:59;13.07;;;6.40;;
42030;SDS011;27709;52.036;5.906;2024-01-27T11:20:25;14.50;;;6.18;;
42030;SDS011;27709;52.036;5.906;2024-01-27T11:22:54;16.30;;;6.65;;
42030;SDS011;27709;52.036;5.906;2024-01-27T11:25:22;16.45;;;6.53;;
42030;SDS011;27709;52.036;5.906;2024-01-27T11:27:47;14.25;;;6.40;;
42030;SDS011;27709;52.036;5.906;2024-01-27T11:30:26;15.18;;;5.85;;
42030;SDS011;27709;52.036;5.906;2024-01-27T11:32:56;16.50;;;6.47;;
42030;SDS011;27709;52.036;5.906;2024-01-27T11:35:24;13.55;;;7.10;;
42030;SDS011;27709;52.036;5.906;2024-01-27T11:37:52;17.63;;;6.50;;
42030;SDS011;27709;52.036;5.906;2024-01-27T11:40:19;14.15;;;6.40;;
42030;SDS011;27709;52.036;5.906;2024-01-27T11:42:58;17.80;;;7.60;;
42030;SDS011;27709;52.036;5.906;2024-01-27T11:45:25;14.77;;;6.30;;
42030;SDS011;27709;52.036;5.906;2024-01-27T11:47:53;16.45;;;6.40;;
42030;SDS011;27709;52.036;5.906;2024-01-27T11:50:20;13.82;;;6.30;;
42030;SDS011;27709;52.036;5.906;2024-01-27T11:52:49;14.80;;;6.05;;
42030;SDS011;27709;52.036;5.906;2024-01-27T11:55:17;18.52;;;6.05;;
42030;SDS011;27709;52.036;5.906;2024-01-27T11:57:44;15.10;;;5.63;;
42030;SDS011;27709;52.036;5.906;2024-01-27T12:00:10;14.30;;;6.35;;
42030;SDS011;27709;52.036;5.906;2024-01-27T12:02:39;16.13;;;5.97;;
42030;SDS011;27709;52.036;5.906;2024-01-27T12:05:05;16.67;;;6.85;;
42030;SDS011;27709;52.036;5.906;2024-01-27T12:07:34;13.93;;;5.35;;
42030;SDS011;27709;52.036;5.906;2024-01-27T12:10:03;11.68;;;5.50;;
42030;SDS011;27709;52.036;5.906;2024-01-27T12:12:29;15.43;;;5.93;;
42030;SDS011;27709;52.036;5.906;2024-01-27T12:14:54;13.55;;;5.15;;
42030;SDS011;27709;52.036;5.906;2024-01-27T12:17:21;15.32;;;5.90;;
42030;SDS011;27709;52.036;5.906;2024-01-27T12:19:48;16.23;;;5.55;;
42030;SDS011;27709;52.036;5.906;2024-01-27T12:22:25;12.95;;;5.00;;
42030;SDS011;27709;52.036;5.906;2024-01-27T12:24:53;12.32;;;4.72;;
42030;SDS011;27709;52.036;5.906;2024-01-27T12:27:19;13.40;;;5.43;;
42030;SDS011;27709;52.036;5.906;2024-01-27T12:29:48;13.77;;;5.20;;
42030;SDS011;27709;52.036;5.906;2024-01-27T12:32:17;13.02;;;4.95;;
42030;SDS011;27709;52.036;5.906;2024-01-27T12:34:43;15.85;;;5.25;;
42030;SDS011;27709;52.036;5.906;2024-01-27T12:37:10;12.25;;;4.95;;
42030;SDS011;27709;52.036;5.906;2024-01-27T12:39:38;11.10;;;4.40;;
42030;SDS011;27709;52.036;5.906;2024-01-27T12:42:10;12.00;;;4.78;;
42030;SDS011;27709;52.036;5.906;2024-01-27T12:44:36;12.18;;;4.20;;
42030;SDS011;27709;52.036;5.906;2024-01-27T12:47:02;14.18;;;5.32;;
42030;SDS011;27709;52.036;5.906;2024-01-27T12:49:28;16.17;;;4.63;;
42030;SDS011;27709;52.036;5.906;2024-01-27T12:51:55;15.43;;;4.65;;
42030;SDS011;27709;52.036;5.906;2024-01-27T12:54:20;16.00;;;5.15;;
42030;SDS011;27709;52.036;5.906;2024-01-27T12:56:46;16.77;;;5.00;;
42030;SDS011;27709;52.036;5.906;2024-01-27T12:59:11;13.73;;;5.20;;
42030;SDS011;27709;52.036;5.906;2024-01-27T13:01:39;11.88;;;4.22;;
42030;SDS011;27709;52.036;5.906;2024-01-27T13:04:05;15.95;;;5.22;;
42030;SDS011;27709;52.036;5.906;2024-01-27T13:06:30;14.50;;;5.22;;
42030;SDS011;27709;52.036;5.906;2024-01-27T13:08:57;12.25;;;4.30;;
42030;SDS011;27709;52.036;5.906;2024-01-27T13:11:26;15.07;;;4.95;;
42030;SDS011;27709;52.036;5.906;2024-01-27T13:13:51;12.13;;;4.72;;
42030;SDS011;27709;52.036;5.906;2024-01-27T13:16:17;13.05;;;4.57;;
42030;SDS011;27709;52.036;5.906;2024-01-27T13:18:42;15.45;;;4.88;;
42030;SDS011;27709;52.036;5.906;2024-01-27T13:21:09;15.55;;;5.25;;
42030;SDS011;27709;52.036;5.906;2024-01-27T13:23:35;15.18;;;4.55;;
42030;SDS011;27709;52.036;5.906;2024-01-27T13:26:01;15.70;;;4.57;;
42030;SDS011;27709;52.036;5.906;2024-01-27T13:28:26;14.65;;;4.43;;
42030;SDS011;27709;52.036;5.906;2024-01-27T13:30:52;11.52;;;4.00;;
42030;SDS011;27709;52.036;5.906;2024-01-27T13:33:17;14.02;;;3.42;;
42030;SDS011;27709;52.036;5.906;2024-01-27T13:35:43;11.70;;;3.58;;
42030;SDS011;27709;52.036;5.906;2024-01-27T13:38:15;11.07;;;3.45;;
42030;SDS011;27709;52.036;5.906;2024-01-27T13:40:44;11.13;;;3.40;;
42030;SDS011;27709;52.036;5.906;2024-01-27T13:43:10;11.02;;;3.22;;
42030;SDS011;27709;52.036;5.906;2024-01-27T13:45:36;11.40;;;3.25;;
42030;SDS011;27709;52.036;5.906;2024-01-27T13:48:02;11.88;;;3.28;;
42030;SDS011;27709;52.036;5.906;2024-01-27T13:50:27;9.35;;;3.78;;
42030;SDS011;27709;52.036;5.906;2024-01-27T13:52:57;12.27;;;4.15;;
42030;SDS011;27709;52.036;5.906;2024-01-27T13:55:23;13.77;;;3.92;;
42030;SDS011;27709;52.036;5.906;2024-01-27T13:57:49;15.15;;;4.35;;
42030;SDS011;27709;52.036;5.906;2024-01-27T14:00:15;11.35;;;4.03;;
42030;SDS011;27709;52.036;5.906;2024-01-27T14:02:41;12.18;;;3.58;;
42030;SDS011;27709;52.036;5.906;2024-01-27T14:05:07;10.05;;;3.47;;
42030;SDS011;27709;52.036;5.906;2024-01-27T14:07:34;14.70;;;3.58;;
42030;SDS011;27709;52.036;5.906;2024-01-27T14:10:00;18.00;;;3.80;;
42030;SDS011;27709;52.036;5.906;2024-01-27T14:12:26;15.02;;;3.78;;
42030;SDS011;27709;52.036;5.906;2024-01-27T14:14:52;10.73;;;3.30;;
42030;SDS011;27709;52.036;5.906;2024-01-27T14:17:19;14.13;;;3.95;;
42030;SDS011;27709;52.036;5.906;2024-01-27T14:19:47;14.80;;;3.75;;
42030;SDS011;27709;52.036;5.906;2024-01-27T14:22:13;14.32;;;3.38;;
42030;SDS011;27709;52.036;5.906;2024-01-27T14:24:38;13.35;;;3.65;;
42030;SDS011;27709;52.036;5.906;2024-01-27T14:27:06;13.07;;;3.47;;
42030;SDS011;27709;52.036;5.906;2024-01-27T14:29:33;12.48;;;3.72;;
42030;SDS011;27709;52.036;5.906;2024-01-27T14:32:00;16.48;;;4.10;;